createdAt,value
2023-04-08T00:00:54.708Z,99296.56
2023-04-08T00:03:22.623Z,99286.16
2023-04-08T00:05:50.085Z,99292.34
2023-04-08T00:08:17.434Z,99293.81
2023-04-08T00:10:45.426Z,99291.97
2023-04-08T00:13:13.325Z,99286.25
2023-04-08T00:15:41.388Z,99294.84
2023-04-08T00:18:09.152Z,99292.91
2023-04-08T00:20:37.580Z,99299.25
2023-04-08T00:23:04.991Z,99293.88
2023-04-08T00:25:32.726Z,99298.13
2023-04-08T00:28:00.414Z,99302.25
2023-04-08T00:30:28.599Z,99304.59
2023-04-08T00:32:56.309Z,99297.00
2023-04-08T00:35:24.713Z,99297.97
2023-04-08T00:37:52.162Z,99304.94
2023-04-08T00:40:19.832Z,99294.34
2023-04-08T00:42:47.262Z,99293.25
2023-04-08T00:45:14.662Z,99295.66
2023-04-08T00:47:42.466Z,99300.47
2023-04-08T00:50:10.908Z,99301.44
2023-04-08T00:52:38.296Z,99305.25
2023-04-08T00:55:06.610Z,99305.63
2023-04-08T00:57:34.235Z,99301.75
2023-04-08T01:00:01.696Z,99301.56
2023-04-08T01:03:00.540Z,99304.47
2023-04-08T01:05:39.572Z,99306.13
2023-04-08T01:08:08.740Z,99309.53
2023-04-08T01:10:37.887Z,99298.16
2023-04-08T01:13:10.036Z,99299.84
2023-04-08T01:15:39.255Z,99295.06
2023-04-08T01:18:09.378Z,99303.22
2023-04-08T01:20:37.386Z,99299.59
2023-04-08T01:23:36.323Z,99303.59
2023-04-08T01:26:03.791Z,99302.59
2023-04-08T01:28:31.692Z,99303.75
2023-04-08T01:31:01.080Z,99307.69
2023-04-08T01:33:29.048Z,99291.87
2023-04-08T01:35:57.865Z,99300.69
2023-04-08T01:38:29.084Z,99295.88
2023-04-08T01:40:57.255Z,99302.06
2023-04-08T01:43:24.767Z,99294.84
2023-04-08T01:45:54.616Z,99297.00
2023-04-08T01:48:22.518Z,99296.53
2023-04-08T01:50:51.347Z,99300.91
2023-04-08T01:53:18.801Z,99298.44
2023-04-08T01:55:47.063Z,99292.13
2023-04-08T01:58:19.283Z,99298.25
2023-04-08T02:00:47.253Z,99301.28
2023-04-08T02:03:18.110Z,99298.25
2023-04-08T02:05:46.905Z,99296.50
2023-04-08T02:08:14.558Z,99299.06
2023-04-08T02:10:41.988Z,99293.00
2023-04-08T02:13:09.451Z,99301.75
2023-04-08T02:15:38.986Z,99298.94
2023-04-08T02:18:13.574Z,99299.69
2023-04-08T02:20:45.946Z,99292.25
2023-04-08T02:23:19.784Z,99298.97
2023-04-08T02:25:48.174Z,99299.25
2023-04-08T02:28:18.522Z,99297.41
2023-04-08T02:30:50.411Z,99300.81
2023-04-08T02:33:20.437Z,99294.00
2023-04-08T02:35:49.845Z,99294.09
2023-04-08T02:38:17.399Z,99290.06
2023-04-08T02:40:45.146Z,99290.34
2023-04-08T02:43:12.673Z,99285.53
2023-04-08T02:45:44.047Z,99290.56
2023-04-08T02:48:11.838Z,99293.44
2023-04-08T02:50:40.078Z,99288.62
2023-04-08T02:53:08.867Z,99293.19
2023-04-08T02:55:36.920Z,99284.31
2023-04-08T02:58:04.357Z,99292.66
2023-04-08T03:00:31.850Z,99297.50
2023-04-08T03:02:59.747Z,99292.91
2023-04-08T03:05:27.902Z,99292.84
2023-04-08T03:07:55.453Z,99290.22
2023-04-08T03:10:23.253Z,99294.22
2023-04-08T03:12:50.672Z,99296.78
2023-04-08T03:15:18.272Z,99298.31
2023-04-08T03:17:46.152Z,99293.50
2023-04-08T03:20:13.612Z,99302.59
2023-04-08T03:22:41.086Z,99294.72
2023-04-08T03:25:09.233Z,99308.97
2023-04-08T03:27:36.598Z,99297.81
2023-04-08T03:30:04.522Z,99297.53
2023-04-08T03:32:33.077Z,99298.66
2023-04-08T03:35:00.590Z,99307.69
2023-04-08T03:37:27.965Z,99306.84
2023-04-08T03:39:56.387Z,99307.16
2023-04-08T03:42:23.899Z,99314.72
2023-04-08T03:44:51.367Z,99310.72
2023-04-08T03:47:19.787Z,99315.97
2023-04-08T03:49:47.175Z,99317.19
2023-04-08T03:52:14.558Z,99314.50
2023-04-08T03:54:42.199Z,99319.28
2023-04-08T03:57:09.580Z,99323.47
2023-04-08T03:59:37.525Z,99322.53
2023-04-08T04:02:05.606Z,99327.09
2023-04-08T04:04:33.927Z,99332.94
2023-04-08T04:07:01.341Z,99331.31
2023-04-08T04:09:28.744Z,99337.84
2023-04-08T04:11:56.357Z,99332.84
2023-04-08T04:14:23.721Z,99345.34
2023-04-08T04:16:51.101Z,99341.81
2023-04-08T04:19:18.825Z,99335.47
2023-04-08T04:22:05.880Z,99345.75
2023-04-08T04:24:33.519Z,99342.72
2023-04-08T04:27:01.975Z,99345.37
2023-04-08T04:29:31.637Z,99345.97
2023-04-08T04:31:59.298Z,99346.53
2023-04-08T04:34:26.651Z,99349.62
2023-04-08T04:36:54.019Z,99353.13
2023-04-08T04:39:21.699Z,99353.72
2023-04-08T04:41:49.377Z,99356.97
2023-04-08T04:44:16.861Z,99353.06
2023-04-08T04:46:44.498Z,99359.38
2023-04-08T04:49:11.982Z,99354.50
2023-04-08T04:51:39.876Z,99355.69
2023-04-08T04:54:07.533Z,99354.81
2023-04-08T04:56:34.985Z,99358.50
2023-04-08T04:59:02.401Z,99356.41
2023-04-08T05:01:30.107Z,99350.84
2023-04-08T05:03:58.030Z,99351.00
2023-04-08T05:06:26.459Z,99357.97
2023-04-08T05:08:54.070Z,99357.62
2023-04-08T05:11:24.225Z,99362.06
2023-04-08T05:13:51.600Z,99360.97
2023-04-08T05:16:19.309Z,99362.19
2023-04-08T05:18:46.765Z,99358.97
2023-04-08T05:21:14.145Z,99363.97
2023-04-08T05:23:41.787Z,99364.09
2023-04-08T05:26:09.198Z,99366.72
2023-04-08T05:28:36.618Z,99376.22
2023-04-08T05:31:04.529Z,99373.19
2023-04-08T05:33:32.071Z,99380.66
2023-04-08T05:35:59.532Z,99390.72
2023-04-08T05:38:27.201Z,99387.47
2023-04-08T05:40:54.581Z,99387.53
2023-04-08T05:43:21.971Z,99388.91
2023-04-08T05:45:49.613Z,99391.03
2023-04-08T05:48:16.969Z,99388.66
2023-04-08T05:50:44.362Z,99391.06
2023-04-08T05:53:12.039Z,99388.59
2023-04-08T05:55:39.521Z,99395.75
2023-04-08T05:58:08.127Z,99391.84
2023-04-08T06:00:35.818Z,99410.31
2023-04-08T06:03:03.713Z,99401.13
2023-04-08T06:05:31.620Z,99393.81
2023-04-08T06:07:59.195Z,99398.75
2023-04-08T06:10:26.854Z,99398.94
2023-04-08T06:12:54.263Z,99395.53
2023-04-08T06:15:22.197Z,99400.91
2023-04-08T06:17:49.900Z,99407.84
2023-04-08T06:20:17.318Z,99401.78
2023-04-08T06:22:44.718Z,99408.66
2023-04-08T06:25:12.477Z,99410.91
2023-04-08T06:27:39.844Z,99418.78
2023-04-08T06:30:08.038Z,99418.31
2023-04-08T06:32:35.742Z,99420.72
2023-04-08T06:35:03.301Z,99427.72
2023-04-08T06:37:30.755Z,99423.72
2023-04-08T06:39:58.419Z,99423.47
2023-04-08T06:42:25.848Z,99424.16
2023-04-08T06:44:53.640Z,99421.16
2023-04-08T06:47:21.288Z,99433.00
2023-04-08T06:49:48.662Z,99423.59
2023-04-08T06:52:16.047Z,99432.88
2023-04-08T06:54:43.834Z,99427.44
2023-04-08T06:57:11.752Z,99429.59
2023-04-08T06:59:39.139Z,99437.41
2023-04-08T07:02:07.193Z,99430.63
2023-04-08T07:04:34.747Z,99436.81
2023-04-08T07:07:02.120Z,99436.63
2023-04-08T07:09:29.781Z,99439.38
2023-04-08T07:11:57.689Z,99439.13
2023-04-08T07:14:25.129Z,99441.00
2023-04-08T07:16:52.878Z,99447.88
2023-04-08T07:19:21.029Z,99444.78
2023-04-08T07:21:48.588Z,99445.28
2023-04-08T07:24:16.378Z,99451.53
2023-04-08T07:26:43.736Z,99461.06
2023-04-08T07:29:11.216Z,99456.72
2023-04-08T07:31:38.878Z,99461.00
2023-04-08T07:34:06.233Z,99455.28
2023-04-08T07:36:33.635Z,99465.88
2023-04-08T07:39:01.365Z,99463.62
2023-04-08T07:41:28.765Z,99470.31
2023-04-08T07:43:56.245Z,99467.44
2023-04-08T07:46:23.941Z,99481.28
2023-04-08T07:48:52.125Z,99478.72
2023-04-08T07:51:20.190Z,99484.78
2023-04-08T07:53:48.813Z,99483.44
2023-04-08T07:56:18.259Z,99484.13
2023-04-08T07:58:46.885Z,99483.19
2023-04-08T08:01:19.904Z,99490.53
2023-04-08T08:03:49.182Z,99484.72
2023-04-08T08:06:16.944Z,99490.37
2023-04-08T08:08:44.627Z,99490.09
2023-04-08T08:11:12.283Z,99494.34
2023-04-08T08:13:39.720Z,99492.06
2023-04-08T08:16:09.197Z,99488.63
2023-04-08T08:18:37.724Z,99482.00
2023-04-08T08:21:06.351Z,99487.19
2023-04-08T08:23:33.765Z,99490.00
2023-04-08T08:26:02.450Z,99494.78
2023-04-08T08:28:29.843Z,99500.06
2023-04-08T08:30:59.658Z,99503.91
2023-04-08T08:33:27.394Z,99500.16
2023-04-08T08:35:55.641Z,99504.59
2023-04-08T08:38:23.069Z,99504.66
2023-04-08T08:40:58.331Z,99507.13
2023-04-08T08:43:26.657Z,99510.75
2023-04-08T08:45:54.659Z,99506.13
2023-04-08T08:48:22.035Z,99519.19
2023-04-08T08:50:49.459Z,99512.44
2023-04-08T08:53:17.295Z,99519.81
2023-04-08T08:56:13.679Z,99522.19
2023-04-08T08:58:32.771Z,99523.38
2023-04-08T09:01:00.303Z,99521.19
2023-04-08T09:03:28.745Z,99523.13
2023-04-08T09:05:58.521Z,99527.50
2023-04-08T09:08:37.145Z,99536.81
2023-04-08T09:11:11.486Z,99533.63
2023-04-08T09:13:38.892Z,99528.63
2023-04-08T09:16:18.228Z,99531.53
2023-04-08T09:18:47.453Z,99537.22
2023-04-08T09:21:17.050Z,99535.37
2023-04-08T09:23:46.360Z,99540.94
2023-04-08T09:26:16.425Z,99546.75
2023-04-08T09:28:57.756Z,99547.31
2023-04-08T09:31:27.858Z,99546.03
2023-04-08T09:33:59.541Z,99546.94
2023-04-08T09:36:27.578Z,99556.03
2023-04-08T09:38:56.162Z,99550.22
2023-04-08T09:41:25.012Z,99551.09
2023-04-08T09:43:56.679Z,99555.53
2023-04-08T09:46:33.636Z,99552.00
2023-04-08T09:49:01.903Z,99548.78
2023-04-08T09:51:35.068Z,99558.19
2023-04-08T09:54:04.078Z,99552.53
2023-04-08T09:56:38.437Z,99556.94
2023-04-08T09:59:12.443Z,99558.69
2023-04-08T10:01:48.859Z,99554.31
2023-04-08T10:04:19.379Z,99555.81
2023-04-08T10:06:54.796Z,99562.81
2023-04-08T10:09:23.004Z,99561.09
2023-04-08T10:11:50.944Z,99568.63
2023-04-08T10:14:18.310Z,99559.25
2023-04-08T10:16:46.095Z,99570.72
2023-04-08T10:19:42.213Z,99566.56
2023-04-08T10:22:48.936Z,99561.91
2023-04-08T10:25:19.516Z,99569.09
2023-04-08T10:27:47.778Z,99563.78
2023-04-08T10:30:33.380Z,99569.41
2023-04-08T10:33:01.511Z,99561.41
2023-04-08T10:35:33.153Z,99563.28
2023-04-08T10:38:02.166Z,99570.09
2023-04-08T10:40:39.892Z,99565.78
2023-04-08T10:43:07.780Z,99564.69
2023-04-08T10:45:35.254Z,99569.25
2023-04-08T10:48:31.983Z,99569.19
2023-04-08T10:51:06.682Z,99566.25
2023-04-08T10:53:42.047Z,99567.13
2023-04-08T10:56:15.395Z,99559.91
2023-04-08T10:58:50.825Z,99570.34
2023-04-08T11:01:19.134Z,99568.28
2023-04-08T11:03:46.764Z,99563.25
2023-04-08T11:06:14.823Z,99570.94
2023-04-08T11:08:42.523Z,99561.41
2023-04-08T11:11:11.148Z,99568.06
2023-04-08T11:13:52.708Z,99579.38
2023-04-08T11:16:22.791Z,99575.97
2023-04-08T11:18:51.185Z,99566.84
2023-04-08T11:21:19.675Z,99571.19
2023-04-08T11:23:51.040Z,99570.66
2023-04-08T11:26:22.763Z,99580.59
2023-04-08T11:28:52.045Z,99577.72
2023-04-08T11:31:23.489Z,99563.69
2023-04-08T11:36:22.062Z,99577.59
2023-04-08T11:38:49.568Z,99577.47
2023-04-08T11:41:17.649Z,99569.13
2023-04-08T11:43:52.619Z,99573.13
2023-04-08T11:46:20.672Z,99580.03
2023-04-08T11:49:01.722Z,99579.59
2023-04-08T11:51:29.489Z,99568.63
2023-04-08T11:53:57.459Z,99578.50
2023-04-08T11:56:25.200Z,99576.81
2023-04-08T11:58:53.296Z,99582.78
2023-04-08T12:01:21.580Z,99577.94
2023-04-08T12:03:57.282Z,99577.62
2023-04-08T12:06:27.238Z,99577.47
2023-04-08T12:08:55.909Z,99569.63
2023-04-08T12:11:24.434Z,99569.09
2023-04-08T12:13:52.797Z,99563.41
2023-04-08T12:16:23.598Z,99563.75
2023-04-08T12:18:51.063Z,99562.22
2023-04-08T12:21:18.492Z,99574.63
2023-04-08T12:23:46.390Z,99573.34
2023-04-08T12:26:14.597Z,99559.97
2023-04-08T12:28:41.998Z,99565.78
2023-04-08T12:31:09.706Z,99565.81
2023-04-08T12:33:37.774Z,99567.72
2023-04-08T12:36:05.314Z,99579.81
2023-04-08T12:38:33.574Z,99578.53
2023-04-08T12:41:01.025Z,99566.53
2023-04-08T12:43:28.422Z,99569.41
2023-04-08T12:45:56.629Z,99567.44
2023-04-08T12:48:24.001Z,99574.87
2023-04-08T12:50:51.357Z,99580.53
2023-04-08T12:53:19.241Z,99571.75
2023-04-08T12:55:48.024Z,99569.66
2023-04-08T12:58:16.942Z,99565.84
2023-04-08T13:00:46.770Z,99563.78
2023-04-08T13:03:17.454Z,99565.38
2023-04-08T13:05:45.265Z,99561.03
2023-04-08T13:08:12.665Z,99562.38
2023-04-08T13:10:40.378Z,99563.50
2023-04-08T13:13:08.169Z,99566.16
2023-04-08T13:15:35.606Z,99565.13
2023-04-08T13:18:03.088Z,99563.59
2023-04-08T13:20:30.911Z,99568.38
2023-04-08T13:22:58.298Z,99555.69
2023-04-08T13:25:25.729Z,99555.56
2023-04-08T13:27:53.409Z,99552.63
2023-04-08T13:30:20.867Z,99555.00
2023-04-08T13:32:48.269Z,99558.37
2023-04-08T13:35:16.229Z,99552.94
2023-04-08T13:37:43.914Z,99562.59
2023-04-08T13:40:12.367Z,99565.22
2023-04-08T13:42:40.053Z,99558.72
2023-04-08T13:45:07.889Z,99555.94
2023-04-08T13:47:37.781Z,99563.56
2023-04-08T13:50:11.381Z,99557.56
2023-04-08T13:52:38.733Z,99555.53
2023-04-08T13:55:06.905Z,99548.88
2023-04-08T13:57:35.253Z,99547.12
2023-04-08T14:00:03.562Z,99558.47
2023-04-08T14:02:37.969Z,99550.28
2023-04-08T14:05:06.385Z,99549.59
2023-04-08T14:07:33.818Z,99552.06
2023-04-08T14:10:01.477Z,99552.56
2023-04-08T14:12:29.146Z,99551.06
2023-04-08T14:14:56.549Z,99550.47
2023-04-08T14:17:24.013Z,99551.34
2023-04-08T14:19:51.727Z,99557.19
2023-04-08T14:22:19.126Z,99559.19
2023-04-08T14:24:46.637Z,99558.13
2023-04-08T14:27:14.299Z,99563.84
2023-04-08T14:29:44.552Z,99561.16
2023-04-08T14:32:12.441Z,99568.25
2023-04-08T14:34:40.169Z,99567.75
2023-04-08T14:37:08.121Z,99558.31
2023-04-08T14:39:35.897Z,99556.78
2023-04-08T14:42:03.662Z,99559.78
2023-04-08T14:44:31.071Z,99560.78
2023-04-08T14:46:58.700Z,99565.97
2023-04-08T14:49:26.404Z,99558.22
2023-04-08T14:51:53.820Z,99560.81
2023-04-08T14:54:21.284Z,99561.28
2023-04-08T14:56:48.933Z,99561.53
2023-04-08T14:59:16.397Z,99561.31
2023-04-08T15:01:45.071Z,99554.28
2023-04-08T15:04:12.895Z,99559.81
2023-04-08T15:06:40.521Z,99557.19
2023-04-08T15:09:07.934Z,99562.00
2023-04-08T15:11:35.683Z,99549.97
2023-04-08T15:14:03.085Z,99557.63
2023-04-08T15:16:30.553Z,99559.66
2023-04-08T15:19:00.370Z,99559.28
2023-04-08T15:21:27.775Z,99561.63
2023-04-08T15:23:55.302Z,99552.16
2023-04-08T15:26:23.073Z,99554.03
2023-04-08T15:28:52.645Z,99555.84
2023-04-08T15:31:20.352Z,99564.72
2023-04-08T15:33:48.833Z,99557.81
2023-04-08T15:36:19.873Z,99560.75
2023-04-08T15:38:47.909Z,99568.31
2023-04-08T15:41:19.223Z,99570.34
2023-04-08T15:43:46.921Z,99571.69
2023-04-08T15:46:19.069Z,99585.59
2023-04-08T15:48:47.274Z,99584.72
2023-04-08T15:51:14.938Z,99573.03
2023-04-08T15:53:43.157Z,99580.03
2023-04-08T15:56:16.220Z,99573.56
2023-04-08T15:58:45.058Z,99575.53
2023-04-08T16:01:12.911Z,99578.81
2023-04-08T16:03:41.077Z,99579.25
2023-04-08T16:06:09.013Z,99586.53
2023-04-08T16:08:37.160Z,99570.25
2023-04-08T16:11:06.592Z,99582.87
2023-04-08T16:13:34.239Z,99581.91
2023-04-08T16:16:02.481Z,99578.25
2023-04-08T16:18:30.617Z,99576.09
2023-04-08T16:20:58.045Z,99585.47
2023-04-08T16:23:25.474Z,99596.13
2023-04-08T16:25:53.155Z,99588.03
2023-04-08T16:28:22.112Z,99600.50
2023-04-08T16:30:49.550Z,99592.19
2023-04-08T16:33:17.244Z,99599.72
2023-04-08T16:35:44.714Z,99593.97
2023-04-08T16:38:12.248Z,99595.88
2023-04-08T16:40:39.916Z,99597.66
2023-04-08T16:43:07.435Z,99601.56
2023-04-08T16:45:36.092Z,99599.97
2023-04-08T16:48:03.989Z,99604.03
2023-04-08T16:50:31.364Z,99608.06
2023-04-08T16:52:58.914Z,99606.59
2023-04-08T16:55:26.658Z,99605.25
2023-04-08T16:57:54.650Z,99601.78
2023-04-08T17:00:22.412Z,99610.19
2023-04-08T17:02:50.707Z,99611.06
2023-04-08T17:05:18.317Z,99607.59
2023-04-08T17:07:45.933Z,99612.59
2023-04-08T17:10:13.729Z,99613.13
2023-04-08T17:12:41.631Z,99616.16
2023-04-08T17:15:09.617Z,99617.16
2023-04-08T17:17:37.725Z,99626.00
2023-04-08T17:20:05.824Z,99637.19
2023-04-08T17:22:33.230Z,99646.97
2023-04-08T17:25:01.248Z,99647.88
2023-04-08T17:27:28.612Z,99641.06
2023-04-08T17:29:57.848Z,99643.94
2023-04-08T17:32:25.830Z,99652.59
2023-04-08T17:34:53.587Z,99645.88
2023-04-08T17:37:21.230Z,99651.78
2023-04-08T17:39:48.932Z,99651.03
2023-04-08T17:42:16.958Z,99649.34
2023-04-08T17:44:44.808Z,99657.94
2023-04-08T17:47:12.572Z,99657.97
2023-04-08T17:49:39.950Z,99656.97
2023-04-08T17:52:07.386Z,99657.69
2023-04-08T17:54:35.007Z,99660.19
2023-04-08T17:57:03.120Z,99655.81
2023-04-08T17:59:30.776Z,99656.97
2023-04-08T18:01:58.507Z,99661.06
2023-04-08T18:04:26.321Z,99658.28
2023-04-08T18:06:53.728Z,99671.63
2023-04-08T18:09:21.178Z,99669.53
2023-04-08T18:11:48.830Z,99666.88
2023-04-08T18:14:16.629Z,99670.59
2023-04-08T18:16:45.426Z,99672.91
2023-04-08T18:19:13.399Z,99675.47
2023-04-08T18:21:40.798Z,99677.12
2023-04-08T18:24:09.394Z,99683.09
2023-04-08T18:26:37.128Z,99681.47
2023-04-08T18:29:04.474Z,99677.72
2023-04-08T18:31:31.836Z,99685.09
2023-04-08T18:33:59.550Z,99684.81
2023-04-08T18:36:27.390Z,99688.69
2023-04-08T18:38:54.805Z,99684.00
2023-04-08T18:41:24.964Z,99694.53
2023-04-08T18:43:52.587Z,99692.44
2023-04-08T18:46:20.527Z,99694.31
2023-04-08T18:48:49.167Z,99696.28
2023-04-08T18:51:19.376Z,99693.16
2023-04-08T18:53:46.966Z,99700.16
2023-04-08T18:56:18.650Z,99700.16
2023-04-08T18:58:47.092Z,99701.59
2023-04-08T19:01:14.862Z,99696.03
2023-04-08T19:03:47.451Z,99697.66
2023-04-08T19:06:17.367Z,99703.13
2023-04-08T19:08:46.520Z,99705.59
2023-04-08T19:11:15.933Z,99701.88
2023-04-08T19:13:43.421Z,99706.97
2023-04-08T19:16:11.270Z,99708.66
2023-04-08T19:18:38.957Z,99709.72
2023-04-08T19:21:06.336Z,99709.03
2023-04-08T19:23:33.697Z,99704.72
2023-04-08T19:26:05.239Z,99702.75
2023-04-08T19:28:33.460Z,99713.25
2023-04-08T19:31:02.074Z,99711.59
2023-04-08T19:33:29.718Z,99711.00
2023-04-08T19:35:57.647Z,99709.00
2023-04-08T19:38:25.345Z,99715.00
2023-04-08T19:40:52.815Z,99717.09
2023-04-08T19:43:20.628Z,99715.56
2023-04-08T19:45:53.422Z,99713.13
2023-04-08T19:48:21.141Z,99721.50
2023-04-08T19:50:50.986Z,99721.41
2023-04-08T19:53:19.464Z,99717.59
2023-04-08T19:55:47.023Z,99723.16
2023-04-08T19:58:14.744Z,99725.78
2023-04-08T20:00:42.233Z,99722.19
2023-04-08T20:03:10.310Z,99725.66
2023-04-08T20:05:37.986Z,99722.44
2023-04-08T20:08:05.445Z,99725.03
2023-04-08T20:10:33.196Z,99731.84
2023-04-08T20:13:00.767Z,99727.31
2023-04-08T20:15:28.271Z,99723.72
2023-04-08T20:17:56.546Z,99725.09
2023-04-08T20:20:24.177Z,99723.59
2023-04-08T20:22:51.647Z,99726.44
2023-04-08T20:25:19.508Z,99732.03
2023-04-08T20:27:46.875Z,99727.31
2023-04-08T20:30:14.303Z,99727.00
2023-04-08T20:32:42.050Z,99724.06
2023-04-08T20:35:09.554Z,99723.31
2023-04-08T20:37:37.040Z,99734.34
2023-04-08T20:40:05.182Z,99726.81
2023-04-08T20:42:33.220Z,99733.06
2023-04-08T20:45:00.615Z,99726.56
2023-04-08T20:47:28.708Z,99731.03
2023-04-08T20:49:56.153Z,99732.19
2023-04-08T20:52:23.565Z,99728.50
2023-04-08T20:54:51.279Z,99736.00
2023-04-08T20:57:18.726Z,99734.47
2023-04-08T20:59:46.140Z,99737.34
2023-04-08T21:02:14.144Z,99737.47
2023-04-08T21:04:41.818Z,99732.69
2023-04-08T21:07:09.187Z,99742.50
2023-04-08T21:09:36.861Z,99736.69
2023-04-08T21:12:04.687Z,99743.28
2023-04-08T21:14:32.162Z,99737.22
2023-04-08T21:16:59.765Z,99739.25
2023-04-08T21:19:27.128Z,99738.78
2023-04-08T21:21:54.492Z,99744.16
2023-04-08T21:24:22.234Z,99743.47
2023-04-08T21:26:49.602Z,99749.50
2023-04-08T21:29:16.921Z,99743.31
2023-04-08T21:31:44.632Z,99744.16
2023-04-08T21:34:13.317Z,99746.75
2023-04-08T21:36:40.722Z,99747.75
2023-04-08T21:39:08.403Z,99747.16
2023-04-08T21:41:35.980Z,99745.28
2023-04-08T21:44:04.777Z,99750.22
2023-04-08T21:46:32.396Z,99745.06
2023-04-08T21:48:59.849Z,99740.44
2023-04-08T21:51:27.572Z,99748.87
2023-04-08T21:53:55.290Z,99741.53
2023-04-08T21:56:24.556Z,99743.53
2023-04-08T21:58:52.364Z,99739.09
2023-04-08T22:01:20.653Z,99748.56
2023-04-08T22:03:48.411Z,99757.31
2023-04-08T22:06:25.750Z,99750.44
2023-04-08T22:08:59.565Z,99744.91
2023-04-08T22:11:27.090Z,99746.53
2023-04-08T22:13:54.471Z,99753.94
2023-04-08T22:16:22.148Z,99747.34
2023-04-08T22:18:49.653Z,99744.88
2023-04-08T22:21:17.053Z,99739.00
2023-04-08T22:23:45.448Z,99746.94
2023-04-08T22:26:13.955Z,99741.59
2023-04-08T22:28:43.130Z,99742.94
2023-04-08T22:31:12.050Z,99748.97
2023-04-08T22:33:39.645Z,99742.03
2023-04-08T22:36:07.211Z,99750.22
2023-04-08T22:38:34.929Z,99748.19
2023-04-08T22:41:02.322Z,99753.72
2023-04-08T22:43:29.729Z,99745.69
2023-04-08T22:45:57.412Z,99745.31
2023-04-08T22:48:24.809Z,99749.44
2023-04-08T22:50:52.623Z,99749.09
2023-04-08T22:53:21.268Z,99739.12
2023-04-08T22:55:49.070Z,99749.66
2023-04-08T22:58:16.457Z,99757.47
2023-04-08T23:00:44.065Z,99755.03
2023-04-08T23:03:11.596Z,99748.78
2023-04-08T23:05:39.050Z,99750.75
2023-04-08T23:08:06.881Z,99754.22
2023-04-08T23:10:34.275Z,99760.78
2023-04-08T23:13:01.642Z,99754.91
2023-04-08T23:15:29.314Z,99752.91
2023-04-08T23:17:56.777Z,99762.06
2023-04-08T23:20:24.272Z,99760.09
2023-04-08T23:22:52.003Z,99757.66
2023-04-08T23:25:19.396Z,99748.31
2023-04-08T23:27:46.751Z,99753.38
2023-04-08T23:30:14.462Z,99752.84
2023-04-08T23:32:41.980Z,99750.41
2023-04-08T23:35:09.634Z,99751.41
2023-04-08T23:37:37.278Z,99753.72
2023-04-08T23:40:05.127Z,99752.28
2023-04-08T23:42:32.550Z,99753.19
2023-04-08T23:45:00.262Z,99757.50
2023-04-08T23:47:27.722Z,99757.47
2023-04-08T23:49:55.324Z,99756.59
2023-04-08T23:52:23.010Z,99760.75
2023-04-08T23:54:51.029Z,99753.28
2023-04-08T23:57:20.393Z,99759.06
2023-04-08T23:59:48.124Z,99749.28
